sensor_id;sensor_type;location;lat;lon;timestamp;P1;durP1;ratioP1;P2;durP2;ratioP2
50161;SDS011;36061;48.116;11.612;2023-10-31T00:00:59;0.60;;;0.60;;
50161;SDS011;36061;48.116;11.612;2023-10-31T00:03:26;0.97;;;0.73;;
50161;SDS011;36061;48.116;11.612;2023-10-31T00:05:54;1.00;;;0.90;;
50161;SDS011;36061;48.116;11.612;2023-10-31T00:08:22;1.23;;;0.70;;
50161;SDS011;36061;48.116;11.612;2023-10-31T00:10:49;0.63;;;0.53;;
50161;SDS011;36061;48.116;11.612;2023-10-31T00:13:17;1.33;;;0.50;;
50161;SDS011;36061;48.116;11.612;2023-10-31T00:15:44;0.53;;;0.53;;
50161;SDS011;36061;48.116;11.612;2023-10-31T00:18:12;0.40;;;0.40;;
50161;SDS011;36061;48.116;11.612;2023-10-31T00:20:39;0.40;;;0.40;;
50161;SDS011;36061;48.116;11.612;2023-10-31T00:23:07;0.70;;;0.70;;
50161;SDS011;36061;48.116;11.612;2023-10-31T00:25:35;2.23;;;0.40;;
50161;SDS011;36061;48.116;11.612;2023-10-31T00:28:02;0.50;;;0.50;;
50161;SDS011;36061;48.116;11.612;2023-10-31T00:30:30;0.40;;;0.40;;
50161;SDS011;36061;48.116;11.612;2023-10-31T00:32:57;0.60;;;0.60;;
50161;SDS011;36061;48.116;11.612;2023-10-31T00:35:24;1.93;;;0.70;;
50161;SDS011;36061;48.116;11.612;2023-10-31T00:37:51;1.37;;;0.57;;
50161;SDS011;36061;48.116;11.612;2023-10-31T00:40:20;0.40;;;0.40;;
50161;SDS011;36061;48.116;11.612;2023-10-31T00:42:47;0.30;;;0.30;;
50161;SDS011;36061;48.116;11.612;2023-10-31T00:45:15;0.57;;;0.50;;
50161;SDS011;36061;48.116;11.612;2023-10-31T00:47:42;0.70;;;0.50;;
50161;SDS011;36061;48.116;11.612;2023-10-31T00:50:09;0.40;;;0.40;;
50161;SDS011;36061;48.116;11.612;2023-10-31T00:52:37;0.47;;;0.47;;
50161;SDS011;36061;48.116;11.612;2023-10-31T00:55:04;0.50;;;0.50;;
50161;SDS011;36061;48.116;11.612;2023-10-31T00:57:33;0.47;;;0.47;;
50161;SDS011;36061;48.116;11.612;2023-10-31T01:00:00;0.30;;;0.30;;
50161;SDS011;36061;48.116;11.612;2023-10-31T01:02:28;0.40;;;0.40;;
50161;SDS011;36061;48.116;11.612;2023-10-31T01:04:55;0.30;;;0.30;;
50161;SDS011;36061;48.116;11.612;2023-10-31T01:07:22;0.40;;;0.40;;
50161;SDS011;36061;48.116;11.612;2023-10-31T01:09:50;0.40;;;0.40;;
50161;SDS011;36061;48.116;11.612;2023-10-31T01:12:17;1.27;;;0.30;;
50161;SDS011;36061;48.116;11.612;2023-10-31T01:14:46;0.30;;;0.30;;
50161;SDS011;36061;48.116;11.612;2023-10-31T01:17:13;0.30;;;0.30;;
50161;SDS011;36061;48.116;11.612;2023-10-31T01:19:40;0.50;;;0.50;;
50161;SDS011;36061;48.116;11.612;2023-10-31T01:22:09;0.40;;;0.40;;
50161;SDS011;36061;48.116;11.612;2023-10-31T01:24:36;0.57;;;0.40;;
50161;SDS011;36061;48.116;11.612;2023-10-31T01:27:04;1.00;;;0.40;;
50161;SDS011;36061;48.116;11.612;2023-10-31T01:29:31;0.60;;;0.40;;
50161;SDS011;36061;48.116;11.612;2023-10-31T01:32:00;0.40;;;0.40;;
50161;SDS011;36061;48.116;11.612;2023-10-31T01:34:27;0.50;;;0.50;;
50161;SDS011;36061;48.116;11.612;2023-10-31T01:36:54;0.47;;;0.47;;
50161;SDS011;36061;48.116;11.612;2023-10-31T01:39:22;1.30;;;0.40;;
50161;SDS011;36061;48.116;11.612;2023-10-31T01:41:49;0.40;;;0.40;;
50161;SDS011;36061;48.116;11.612;2023-10-31T01:44:18;0.60;;;0.50;;
50161;SDS011;36061;48.116;11.612;2023-10-31T01:46:45;0.40;;;0.40;;
50161;SDS011;36061;48.116;11.612;2023-10-31T01:49:14;0.60;;;0.50;;
50161;SDS011;36061;48.116;11.612;2023-10-31T01:51:42;0.50;;;0.40;;
50161;SDS011;36061;48.116;11.612;2023-10-31T01:54:11;0.50;;;0.50;;
50161;SDS011;36061;48.116;11.612;2023-10-31T01:56:39;0.97;;;0.37;;
50161;SDS011;36061;48.116;11.612;2023-10-31T01:59:07;0.40;;;0.40;;
50161;SDS011;36061;48.116;11.612;2023-10-31T02:01:37;0.30;;;0.30;;
50161;SDS011;36061;48.116;11.612;2023-10-31T02:04:05;0.30;;;0.30;;
50161;SDS011;36061;48.116;11.612;2023-10-31T02:06:34;0.40;;;0.40;;
50161;SDS011;36061;48.116;11.612;2023-10-31T02:09:01;0.30;;;0.30;;
50161;SDS011;36061;48.116;11.612;2023-10-31T02:11:29;1.40;;;0.30;;
50161;SDS011;36061;48.116;11.612;2023-10-31T02:13:56;0.30;;;0.30;;
50161;SDS011;36061;48.116;11.612;2023-10-31T02:16:23;0.40;;;0.40;;
50161;SDS011;36061;48.116;11.612;2023-10-31T02:18:51;0.33;;;0.33;;
50161;SDS011;36061;48.116;11.612;2023-10-31T02:21:19;0.30;;;0.30;;
50161;SDS011;36061;48.116;11.612;2023-10-31T02:23:56;0.83;;;0.63;;
50161;SDS011;36061;48.116;11.612;2023-10-31T02:26:27;1.07;;;0.40;;
50161;SDS011;36061;48.116;11.612;2023-10-31T02:28:55;0.70;;;0.40;;
50161;SDS011;36061;48.116;11.612;2023-10-31T02:31:22;0.40;;;0.40;;
50161;SDS011;36061;48.116;11.612;2023-10-31T02:33:50;0.30;;;0.30;;
50161;SDS011;36061;48.116;11.612;2023-10-31T02:36:17;0.50;;;0.50;;
50161;SDS011;36061;48.116;11.612;2023-10-31T02:38:45;0.30;;;0.30;;
50161;SDS011;36061;48.116;11.612;2023-10-31T02:41:14;0.77;;;0.30;;
50161;SDS011;36061;48.116;11.612;2023-10-31T02:43:42;0.33;;;0.33;;
50161;SDS011;36061;48.116;11.612;2023-10-31T02:46:09;0.30;;;0.30;;
50161;SDS011;36061;48.116;11.612;2023-10-31T02:48:37;0.30;;;0.30;;
50161;SDS011;36061;48.116;11.612;2023-10-31T02:51:07;1.60;;;0.37;;
50161;SDS011;36061;48.116;11.612;2023-10-31T02:53:34;0.20;;;0.20;;
50161;SDS011;36061;48.116;11.612;2023-10-31T02:56:02;0.67;;;0.30;;
50161;SDS011;36061;48.116;11.612;2023-10-31T02:58:31;0.47;;;0.47;;
50161;SDS011;36061;48.116;11.612;2023-10-31T03:00:58;0.40;;;0.40;;
50161;SDS011;36061;48.116;11.612;2023-10-31T03:03:26;0.43;;;0.43;;
50161;SDS011;36061;48.116;11.612;2023-10-31T03:05:53;0.40;;;0.40;;
50161;SDS011;36061;48.116;11.612;2023-10-31T03:08:20;0.30;;;0.30;;
50161;SDS011;36061;48.116;11.612;2023-10-31T03:10:50;0.30;;;0.30;;
50161;SDS011;36061;48.116;11.612;2023-10-31T03:13:17;0.50;;;0.50;;
50161;SDS011;36061;48.116;11.612;2023-10-31T03:15:46;0.40;;;0.37;;
50161;SDS011;36061;48.116;11.612;2023-10-31T03:18:14;0.30;;;0.30;;
50161;SDS011;36061;48.116;11.612;2023-10-31T03:20:43;1.50;;;0.40;;
50161;SDS011;36061;48.116;11.612;2023-10-31T03:23:11;0.30;;;0.30;;
50161;SDS011;36061;48.116;11.612;2023-10-31T03:25:39;0.30;;;0.30;;
50161;SDS011;36061;48.116;11.612;2023-10-31T03:28:09;0.43;;;0.43;;
50161;SDS011;36061;48.116;11.612;2023-10-31T03:30:46;0.30;;;0.30;;
50161;SDS011;36061;48.116;11.612;2023-10-31T03:33:14;0.30;;;0.30;;
50161;SDS011;36061;48.116;11.612;2023-10-31T03:35:42;0.30;;;0.30;;
50161;SDS011;36061;48.116;11.612;2023-10-31T03:38:09;0.30;;;0.30;;
50161;SDS011;36061;48.116;11.612;2023-10-31T03:40:37;0.40;;;0.40;;
50161;SDS011;36061;48.116;11.612;2023-10-31T03:43:04;0.37;;;0.30;;
50161;SDS011;36061;48.116;11.612;2023-10-31T03:45:31;0.43;;;0.43;;
50161;SDS011;36061;48.116;11.612;2023-10-31T03:48:00;0.30;;;0.30;;
50161;SDS011;36061;48.116;11.612;2023-10-31T03:50:27;0.40;;;0.40;;
50161;SDS011;36061;48.116;11.612;2023-10-31T03:52:55;0.33;;;0.33;;
50161;SDS011;36061;48.116;11.612;2023-10-31T03:55:22;0.53;;;0.40;;
50161;SDS011;36061;48.116;11.612;2023-10-31T03:57:50;0.40;;;0.40;;
50161;SDS011;36061;48.116;11.612;2023-10-31T04:00:17;0.63;;;0.30;;
50161;SDS011;36061;48.116;11.612;2023-10-31T04:02:45;0.40;;;0.40;;
50161;SDS011;36061;48.116;11.612;2023-10-31T04:05:14;0.30;;;0.30;;
50161;SDS011;36061;48.116;11.612;2023-10-31T04:07:42;0.53;;;0.53;;
50161;SDS011;36061;48.116;11.612;2023-10-31T04:10:09;0.40;;;0.40;;
50161;SDS011;36061;48.116;11.612;2023-10-31T04:12:37;0.40;;;0.40;;
50161;SDS011;36061;48.116;11.612;2023-10-31T04:15:04;0.87;;;0.50;;
50161;SDS011;36061;48.116;11.612;2023-10-31T04:17:32;0.73;;;0.40;;
50161;SDS011;36061;48.116;11.612;2023-10-31T04:19:59;0.30;;;0.30;;
50161;SDS011;36061;48.116;11.612;2023-10-31T04:22:30;0.80;;;0.50;;
50161;SDS011;36061;48.116;11.612;2023-10-31T04:24:57;0.30;;;0.30;;
50161;SDS011;36061;48.116;11.612;2023-10-31T04:27:25;0.40;;;0.40;;
50161;SDS011;36061;48.116;11.612;2023-10-31T04:29:52;0.40;;;0.40;;
50161;SDS011;36061;48.116;11.612;2023-10-31T04:32:19;0.40;;;0.40;;
50161;SDS011;36061;48.116;11.612;2023-10-31T04:34:47;0.60;;;0.50;;
50161;SDS011;36061;48.116;11.612;2023-10-31T04:37:14;0.93;;;0.77;;
50161;SDS011;36061;48.116;11.612;2023-10-31T04:39:43;1.03;;;0.50;;
50161;SDS011;36061;48.116;11.612;2023-10-31T04:42:10;0.63;;;0.57;;
50161;SDS011;36061;48.116;11.612;2023-10-31T04:44:37;0.47;;;0.40;;
50161;SDS011;36061;48.116;11.612;2023-10-31T04:47:04;0.73;;;0.60;;
50161;SDS011;36061;48.116;11.612;2023-10-31T04:49:34;1.63;;;0.57;;
50161;SDS011;36061;48.116;11.612;2023-10-31T04:52:02;0.50;;;0.50;;
50161;SDS011;36061;48.116;11.612;2023-10-31T04:54:29;1.10;;;0.70;;
50161;SDS011;36061;48.116;11.612;2023-10-31T04:56:58;0.70;;;0.70;;
50161;SDS011;36061;48.116;11.612;2023-10-31T04:59:25;0.80;;;0.63;;
50161;SDS011;36061;48.116;11.612;2023-10-31T05:01:52;0.80;;;0.80;;
50161;SDS011;36061;48.116;11.612;2023-10-31T05:04:20;0.50;;;0.50;;
50161;SDS011;36061;48.116;11.612;2023-10-31T05:06:48;0.50;;;0.50;;
50161;SDS011;36061;48.116;11.612;2023-10-31T05:09:15;1.73;;;0.60;;
50161;SDS011;36061;48.116;11.612;2023-10-31T05:11:43;0.80;;;0.70;;
50161;SDS011;36061;48.116;11.612;2023-10-31T05:14:12;1.67;;;0.87;;
50161;SDS011;36061;48.116;11.612;2023-10-31T05:16:39;0.80;;;0.77;;
50161;SDS011;36061;48.116;11.612;2023-10-31T05:19:07;0.97;;;0.50;;
50161;SDS011;36061;48.116;11.612;2023-10-31T05:21:35;0.80;;;0.80;;
50161;SDS011;36061;48.116;11.612;2023-10-31T05:24:02;2.30;;;0.80;;
50161;SDS011;36061;48.116;11.612;2023-10-31T05:26:30;1.20;;;1.00;;
50161;SDS011;36061;48.116;11.612;2023-10-31T05:28:58;1.83;;;0.83;;
50161;SDS011;36061;48.116;11.612;2023-10-31T05:31:26;1.90;;;0.70;;
50161;SDS011;36061;48.116;11.612;2023-10-31T05:33:53;0.80;;;0.70;;
50161;SDS011;36061;48.116;11.612;2023-10-31T05:36:21;1.53;;;0.60;;
50161;SDS011;36061;48.116;11.612;2023-10-31T05:38:49;2.07;;;0.67;;
50161;SDS011;36061;48.116;11.612;2023-10-31T05:41:16;1.07;;;0.70;;
50161;SDS011;36061;48.116;11.612;2023-10-31T05:43:44;1.30;;;0.70;;
50161;SDS011;36061;48.116;11.612;2023-10-31T05:46:11;2.53;;;1.00;;
50161;SDS011;36061;48.116;11.612;2023-10-31T05:48:43;0.60;;;0.60;;
50161;SDS011;36061;48.116;11.612;2023-10-31T05:51:12;1.13;;;0.80;;
50161;SDS011;36061;48.116;11.612;2023-10-31T05:53:40;1.73;;;0.63;;
50161;SDS011;36061;48.116;11.612;2023-10-31T05:56:08;0.93;;;0.60;;
50161;SDS011;36061;48.116;11.612;2023-10-31T05:58:36;0.93;;;0.60;;
50161;SDS011;36061;48.116;11.612;2023-10-31T06:01:04;0.67;;;0.53;;
50161;SDS011;36061;48.116;11.612;2023-10-31T06:03:36;2.60;;;0.77;;
50161;SDS011;36061;48.116;11.612;2023-10-31T06:06:06;1.17;;;0.70;;
50161;SDS011;36061;48.116;11.612;2023-10-31T06:08:33;0.60;;;0.60;;
50161;SDS011;36061;48.116;11.612;2023-10-31T06:11:00;0.97;;;0.63;;
50161;SDS011;36061;48.116;11.612;2023-10-31T06:13:29;2.00;;;0.70;;
50161;SDS011;36061;48.116;11.612;2023-10-31T06:15:57;0.73;;;0.60;;
50161;SDS011;36061;48.116;11.612;2023-10-31T06:18:24;0.77;;;0.70;;
50161;SDS011;36061;48.116;11.612;2023-10-31T06:20:52;2.83;;;0.80;;
50161;SDS011;36061;48.116;11.612;2023-10-31T06:23:20;1.33;;;0.70;;
50161;SDS011;36061;48.116;11.612;2023-10-31T06:25:48;0.93;;;0.63;;
50161;SDS011;36061;48.116;11.612;2023-10-31T06:28:15;1.27;;;0.93;;
50161;SDS011;36061;48.116;11.612;2023-10-31T06:30:42;1.23;;;1.13;;
50161;SDS011;36061;48.116;11.612;2023-10-31T06:33:10;3.23;;;1.73;;
50161;SDS011;36061;48.116;11.612;2023-10-31T06:35:37;2.07;;;0.90;;
50161;SDS011;36061;48.116;11.612;2023-10-31T06:38:04;0.77;;;0.70;;
50161;SDS011;36061;48.116;11.612;2023-10-31T06:40:33;1.10;;;0.70;;
50161;SDS011;36061;48.116;11.612;2023-10-31T06:43:00;1.80;;;0.77;;
50161;SDS011;36061;48.116;11.612;2023-10-31T06:45:28;2.80;;;0.77;;
50161;SDS011;36061;48.116;11.612;2023-10-31T06:47:55;1.70;;;0.93;;
50161;SDS011;36061;48.116;11.612;2023-10-31T06:50:22;2.10;;;0.70;;
50161;SDS011;36061;48.116;11.612;2023-10-31T06:52:50;2.07;;;0.90;;
50161;SDS011;36061;48.116;11.612;2023-10-31T06:55:18;3.10;;;0.73;;
50161;SDS011;36061;48.116;11.612;2023-10-31T06:57:46;1.27;;;0.70;;
50161;SDS011;36061;48.116;11.612;2023-10-31T07:00:14;1.13;;;1.07;;
50161;SDS011;36061;48.116;11.612;2023-10-31T07:02:42;1.47;;;1.00;;
50161;SDS011;36061;48.116;11.612;2023-10-31T07:05:09;1.20;;;0.77;;
50161;SDS011;36061;48.116;11.612;2023-10-31T07:07:36;0.77;;;0.70;;
50161;SDS011;36061;48.116;11.612;2023-10-31T07:10:04;0.63;;;0.63;;
50161;SDS011;36061;48.116;11.612;2023-10-31T07:12:32;1.07;;;0.90;;
50161;SDS011;36061;48.116;11.612;2023-10-31T07:15:00;0.77;;;0.73;;
50161;SDS011;36061;48.116;11.612;2023-10-31T07:17:28;1.73;;;0.97;;
50161;SDS011;36061;48.116;11.612;2023-10-31T07:19:57;0.77;;;0.60;;
50161;SDS011;36061;48.116;11.612;2023-10-31T07:22:24;1.93;;;0.70;;
50161;SDS011;36061;48.116;11.612;2023-10-31T07:24:51;2.43;;;0.83;;
50161;SDS011;36061;48.116;11.612;2023-10-31T07:27:19;0.70;;;0.70;;
50161;SDS011;36061;48.116;11.612;2023-10-31T07:29:46;2.10;;;0.70;;
50161;SDS011;36061;48.116;11.612;2023-10-31T07:32:15;2.03;;;0.70;;
50161;SDS011;36061;48.116;11.612;2023-10-31T07:34:43;0.77;;;0.70;;
50161;SDS011;36061;48.116;11.612;2023-10-31T07:37:10;2.00;;;0.70;;
50161;SDS011;36061;48.116;11.612;2023-10-31T07:39:37;1.17;;;0.80;;
50161;SDS011;36061;48.116;11.612;2023-10-31T07:42:05;1.47;;;0.60;;
50161;SDS011;36061;48.116;11.612;2023-10-31T07:44:32;2.23;;;0.70;;
50161;SDS011;36061;48.116;11.612;2023-10-31T07:47:00;2.00;;;0.90;;
50161;SDS011;36061;48.116;11.612;2023-10-31T07:49:28;1.67;;;0.70;;
50161;SDS011;36061;48.116;11.612;2023-10-31T07:51:56;1.03;;;0.63;;
50161;SDS011;36061;48.116;11.612;2023-10-31T07:54:23;4.13;;;0.87;;
50161;SDS011;36061;48.116;11.612;2023-10-31T07:56:50;1.27;;;0.73;;
50161;SDS011;36061;48.116;11.612;2023-10-31T07:59:17;2.10;;;1.20;;
50161;SDS011;36061;48.116;11.612;2023-10-31T08:01:45;0.70;;;0.70;;
50161;SDS011;36061;48.116;11.612;2023-10-31T08:04:13;0.70;;;0.70;;
50161;SDS011;36061;48.116;11.612;2023-10-31T08:06:43;3.10;;;0.67;;
50161;SDS011;36061;48.116;11.612;2023-10-31T08:09:10;1.90;;;0.70;;
50161;SDS011;36061;48.116;11.612;2023-10-31T08:11:38;0.90;;;0.73;;
50161;SDS011;36061;48.116;11.612;2023-10-31T08:14:05;1.03;;;0.87;;
50161;SDS011;36061;48.116;11.612;2023-10-31T08:16:32;2.00;;;1.10;;
50161;SDS011;36061;48.116;11.612;2023-10-31T08:19:00;1.37;;;0.70;;
50161;SDS011;36061;48.116;11.612;2023-10-31T08:21:27;5.27;;;0.90;;
50161;SDS011;36061;48.116;11.612;2023-10-31T08:24:00;0.57;;;0.57;;
50161;SDS011;36061;48.116;11.612;2023-10-31T08:26:28;1.43;;;0.70;;
50161;SDS011;36061;48.116;11.612;2023-10-31T08:28:56;2.50;;;0.90;;
50161;SDS011;36061;48.116;11.612;2023-10-31T08:31:23;2.03;;;0.70;;
50161;SDS011;36061;48.116;11.612;2023-10-31T08:33:50;2.53;;;1.23;;
50161;SDS011;36061;48.116;11.612;2023-10-31T08:36:18;4.67;;;0.93;;
50161;SDS011;36061;48.116;11.612;2023-10-31T08:38:45;1.60;;;0.80;;
50161;SDS011;36061;48.116;11.612;2023-10-31T08:41:15;4.07;;;1.03;;
50161;SDS011;36061;48.116;11.612;2023-10-31T08:43:45;0.57;;;0.57;;
50161;SDS011;36061;48.116;11.612;2023-10-31T08:46:12;3.23;;;1.00;;
50161;SDS011;36061;48.116;11.612;2023-10-31T08:48:40;2.57;;;1.00;;
50161;SDS011;36061;48.116;11.612;2023-10-31T08:51:07;2.90;;;1.07;;
50161;SDS011;36061;48.116;11.612;2023-10-31T08:53:34;0.83;;;0.60;;
50161;SDS011;36061;48.116;11.612;2023-10-31T08:56:02;0.87;;;0.60;;
50161;SDS011;36061;48.116;11.612;2023-10-31T08:58:31;3.60;;;0.90;;
50161;SDS011;36061;48.116;11.612;2023-10-31T09:00:58;4.97;;;1.00;;
50161;SDS011;36061;48.116;11.612;2023-10-31T09:03:26;1.60;;;1.00;;
50161;SDS011;36061;48.116;11.612;2023-10-31T09:05:53;1.00;;;0.77;;
50161;SDS011;36061;48.116;11.612;2023-10-31T09:08:20;2.60;;;1.30;;
50161;SDS011;36061;48.116;11.612;2023-10-31T09:10:48;3.93;;;1.10;;
50161;SDS011;36061;48.116;11.612;2023-10-31T09:13:15;3.37;;;0.77;;
50161;SDS011;36061;48.116;11.612;2023-10-31T09:15:44;2.63;;;0.90;;
50161;SDS011;36061;48.116;11.612;2023-10-31T09:18:11;3.23;;;0.93;;
50161;SDS011;36061;48.116;11.612;2023-10-31T09:20:39;2.63;;;0.90;;
50161;SDS011;36061;48.116;11.612;2023-10-31T09:23:06;1.63;;;0.90;;
50161;SDS011;36061;48.116;11.612;2023-10-31T09:25:33;1.90;;;0.77;;
50161;SDS011;36061;48.116;11.612;2023-10-31T09:28:00;2.63;;;0.97;;
50161;SDS011;36061;48.116;11.612;2023-10-31T09:30:28;2.93;;;1.07;;
50161;SDS011;36061;48.116;11.612;2023-10-31T09:32:56;2.60;;;1.30;;
50161;SDS011;36061;48.116;11.612;2023-10-31T09:35:24;2.13;;;1.17;;
50161;SDS011;36061;48.116;11.612;2023-10-31T09:37:51;1.23;;;0.70;;
50161;SDS011;36061;48.116;11.612;2023-10-31T09:40:19;3.50;;;1.00;;
50161;SDS011;36061;48.116;11.612;2023-10-31T09:42:46;1.83;;;0.90;;
50161;SDS011;36061;48.116;11.612;2023-10-31T09:45:14;2.77;;;0.80;;
50161;SDS011;36061;48.116;11.612;2023-10-31T09:47:42;1.43;;;1.07;;
50161;SDS011;36061;48.116;11.612;2023-10-31T09:50:11;1.67;;;0.83;;
50161;SDS011;36061;48.116;11.612;2023-10-31T09:52:38;1.07;;;0.90;;
50161;SDS011;36061;48.116;11.612;2023-10-31T09:55:06;3.57;;;2.13;;
50161;SDS011;36061;48.116;11.612;2023-10-31T09:57:35;4.10;;;1.00;;
50161;SDS011;36061;48.116;11.612;2023-10-31T10:00:02;4.13;;;0.97;;
50161;SDS011;36061;48.116;11.612;2023-10-31T10:02:35;2.37;;;0.80;;
50161;SDS011;36061;48.116;11.612;2023-10-31T10:05:03;2.17;;;0.80;;
50161;SDS011;36061;48.116;11.612;2023-10-31T10:07:32;1.97;;;0.90;;
50161;SDS011;36061;48.116;11.612;2023-10-31T10:10:01;1.00;;;0.90;;
50161;SDS011;36061;48.116;11.612;2023-10-31T10:12:29;1.43;;;0.97;;
50161;SDS011;36061;48.116;11.612;2023-10-31T10:14:56;0.90;;;0.60;;
50161;SDS011;36061;48.116;11.612;2023-10-31T10:17:24;2.10;;;0.97;;
50161;SDS011;36061;48.116;11.612;2023-10-31T10:20:04;1.07;;;0.63;;
50161;SDS011;36061;48.116;11.612;2023-10-31T10:22:37;4.63;;;1.00;;
50161;SDS011;36061;48.116;11.612;2023-10-31T10:25:08;2.63;;;0.87;;
50161;SDS011;36061;48.116;11.612;2023-10-31T10:27:37;2.53;;;1.00;;
50161;SDS011;36061;48.116;11.612;2023-10-31T10:30:05;4.30;;;0.73;;
50161;SDS011;36061;48.116;11.612;2023-10-31T10:32:34;2.80;;;0.83;;
50161;SDS011;36061;48.116;11.612;2023-10-31T10:35:01;2.20;;;0.83;;
50161;SDS011;36061;48.116;11.612;2023-10-31T10:37:30;7.00;;;1.17;;
50161;SDS011;36061;48.116;11.612;2023-10-31T10:39:59;4.97;;;0.90;;
50161;SDS011;36061;48.116;11.612;2023-10-31T10:42:31;2.40;;;1.00;;
50161;SDS011;36061;48.116;11.612;2023-10-31T10:45:01;1.67;;;0.90;;
50161;SDS011;36061;48.116;11.612;2023-10-31T10:47:31;3.30;;;0.90;;
50161;SDS011;36061;48.116;11.612;2023-10-31T10:50:00;2.00;;;0.90;;
50161;SDS011;36061;48.116;11.612;2023-10-31T10:52:29;1.50;;;0.73;;
50161;SDS011;36061;48.116;11.612;2023-10-31T10:55:04;1.83;;;1.20;;
50161;SDS011;36061;48.116;11.612;2023-10-31T10:57:38;2.53;;;1.10;;
50161;SDS011;36061;48.116;11.612;2023-10-31T11:00:14;1.97;;;1.07;;
50161;SDS011;36061;48.116;11.612;2023-10-31T11:02:42;2.37;;;0.80;;
50161;SDS011;36061;48.116;11.612;2023-10-31T11:05:10;1.03;;;0.80;;
50161;SDS011;36061;48.116;11.612;2023-10-31T11:07:39;5.07;;;1.57;;
50161;SDS011;36061;48.116;11.612;2023-10-31T11:10:09;3.33;;;1.20;;
50161;SDS011;36061;48.116;11.612;2023-10-31T11:12:37;2.50;;;1.17;;
50161;SDS011;36061;48.116;11.612;2023-10-31T11:15:05;2.40;;;1.17;;
50161;SDS011;36061;48.116;11.612;2023-10-31T11:17:35;1.60;;;0.80;;
50161;SDS011;36061;48.116;11.612;2023-10-31T11:20:07;0.97;;;0.70;;
50161;SDS011;36061;48.116;11.612;2023-10-31T11:22:37;1.30;;;0.90;;
50161;SDS011;36061;48.116;11.612;2023-10-31T11:25:06;1.50;;;0.70;;
50161;SDS011;36061;48.116;11.612;2023-10-31T11:27:36;4.47;;;0.80;;
50161;SDS011;36061;48.116;11.612;2023-10-31T11:30:05;1.47;;;0.73;;
50161;SDS011;36061;48.116;11.612;2023-10-31T11:32:33;2.47;;;1.20;;
50161;SDS011;36061;48.116;11.612;2023-10-31T11:35:01;2.63;;;1.20;;
50161;SDS011;36061;48.116;11.612;2023-10-31T11:37:31;2.00;;;0.87;;
50161;SDS011;36061;48.116;11.612;2023-10-31T11:40:17;2.30;;;0.73;;
50161;SDS011;36061;48.116;11.612;2023-10-31T11:42:47;3.27;;;1.20;;
50161;SDS011;36061;48.116;11.612;2023-10-31T11:45:28;2.60;;;0.70;;
50161;SDS011;36061;48.116;11.612;2023-10-31T11:47:58;2.03;;;1.10;;
50161;SDS011;36061;48.116;11.612;2023-10-31T11:50:25;1.80;;;1.00;;
50161;SDS011;36061;48.116;11.612;2023-10-31T11:53:03;2.37;;;1.00;;
50161;SDS011;36061;48.116;11.612;2023-10-31T11:55:34;1.43;;;0.90;;
50161;SDS011;36061;48.116;11.612;2023-10-31T11:58:12;2.20;;;0.80;;
50161;SDS011;36061;48.116;11.612;2023-10-31T12:00:40;3.20;;;0.90;;
50161;SDS011;36061;48.116;11.612;2023-10-31T12:03:08;1.83;;;0.60;;
50161;SDS011;36061;48.116;11.612;2023-10-31T12:05:35;2.37;;;0.90;;
50161;SDS011;36061;48.116;11.612;2023-10-31T12:08:02;1.80;;;0.80;;
50161;SDS011;36061;48.116;11.612;2023-10-31T12:10:29;3.07;;;0.80;;
50161;SDS011;36061;48.116;11.612;2023-10-31T12:12:58;3.77;;;1.00;;
50161;SDS011;36061;48.116;11.612;2023-10-31T12:15:26;3.10;;;1.10;;
50161;SDS011;36061;48.116;11.612;2023-10-31T12:17:57;2.40;;;0.77;;
50161;SDS011;36061;48.116;11.612;2023-10-31T12:20:25;2.17;;;0.97;;
50161;SDS011;36061;48.116;11.612;2023-10-31T12:23:02;2.00;;;0.80;;
50161;SDS011;36061;48.116;11.612;2023-10-31T12:25:30;1.97;;;1.03;;
50161;SDS011;36061;48.116;11.612;2023-10-31T12:28:02;1.33;;;0.80;;
50161;SDS011;36061;48.116;11.612;2023-10-31T12:30:29;3.27;;;1.00;;
50161;SDS011;36061;48.116;11.612;2023-10-31T12:32:56;3.97;;;0.73;;
50161;SDS011;36061;48.116;11.612;2023-10-31T12:35:24;1.60;;;0.83;;
50161;SDS011;36061;48.116;11.612;2023-10-31T12:37:52;2.37;;;0.87;;
50161;SDS011;36061;48.116;11.612;2023-10-31T12:40:21;2.87;;;0.90;;
50161;SDS011;36061;48.116;11.612;2023-10-31T12:42:49;0.90;;;0.70;;
50161;SDS011;36061;48.116;11.612;2023-10-31T12:45:18;2.57;;;1.00;;
50161;SDS011;36061;48.116;11.612;2023-10-31T12:47:59;2.30;;;0.87;;
50161;SDS011;36061;48.116;11.612;2023-10-31T12:50:28;2.00;;;1.03;;
50161;SDS011;36061;48.116;11.612;2023-10-31T12:52:55;2.83;;;0.90;;
50161;SDS011;36061;48.116;11.612;2023-10-31T12:55:25;3.13;;;0.80;;
50161;SDS011;36061;48.116;11.612;2023-10-31T12:57:54;1.60;;;0.70;;
50161;SDS011;36061;48.116;11.612;2023-10-31T13:00:29;0.93;;;0.50;;
50161;SDS011;36061;48.116;11.612;2023-10-31T13:03:01;2.50;;;0.70;;
50161;SDS011;36061;48.116;11.612;2023-10-31T13:05:30;0.73;;;0.60;;
50161;SDS011;36061;48.116;11.612;2023-10-31T13:07:58;1.07;;;0.50;;
50161;SDS011;36061;48.116;11.612;2023-10-31T13:10:29;1.57;;;0.40;;
50161;SDS011;36061;48.116;11.612;2023-10-31T13:12:58;0.80;;;0.50;;
50161;SDS011;36061;48.116;11.612;2023-10-31T13:15:27;1.73;;;0.60;;
50161;SDS011;36061;48.116;11.612;2023-10-31T13:17:55;2.40;;;0.60;;
50161;SDS011;36061;48.116;11.612;2023-10-31T13:20:22;0.70;;;0.70;;
50161;SDS011;36061;48.116;11.612;2023-10-31T13:22:50;0.60;;;0.60;;
50161;SDS011;36061;48.116;11.612;2023-10-31T13:25:17;0.97;;;0.60;;
50161;SDS011;36061;48.116;11.612;2023-10-31T13:27:44;1.90;;;0.50;;
50161;SDS011;36061;48.116;11.612;2023-10-31T13:30:16;0.70;;;0.50;;
50161;SDS011;36061;48.116;11.612;2023-10-31T13:32:45;0.67;;;0.60;;
50161;SDS011;36061;48.116;11.612;2023-10-31T13:35:13;2.67;;;0.70;;
50161;SDS011;36061;48.116;11.612;2023-10-31T13:37:40;1.80;;;0.60;;
50161;SDS011;36061;48.116;11.612;2023-10-31T13:40:07;0.80;;;0.60;;
50161;SDS011;36061;48.116;11.612;2023-10-31T13:42:35;1.17;;;0.70;;
50161;SDS011;36061;48.116;11.612;2023-10-31T13:45:03;1.17;;;0.60;;
50161;SDS011;36061;48.116;11.612;2023-10-31T13:47:30;0.60;;;0.50;;
50161;SDS011;36061;48.116;11.612;2023-10-31T13:49:59;0.70;;;0.50;;
50161;SDS011;36061;48.116;11.612;2023-10-31T13:52:27;0.93;;;0.77;;
50161;SDS011;36061;48.116;11.612;2023-10-31T13:54:54;1.80;;;0.60;;
50161;SDS011;36061;48.116;11.612;2023-10-31T13:57:22;0.83;;;0.50;;
50161;SDS011;36061;48.116;11.612;2023-10-31T13:59:49;1.33;;;0.60;;
50161;SDS011;36061;48.116;11.612;2023-10-31T14:02:20;1.50;;;0.70;;
50161;SDS011;36061;48.116;11.612;2023-10-31T14:04:47;1.07;;;0.97;;
50161;SDS011;36061;48.116;11.612;2023-10-31T14:07:21;0.93;;;0.60;;
50161;SDS011;36061;48.116;11.612;2023-10-31T14:09:49;2.77;;;0.80;;
50161;SDS011;36061;48.116;11.612;2023-10-31T14:12:16;1.17;;;0.43;;
50161;SDS011;36061;48.116;11.612;2023-10-31T14:14:44;0.60;;;0.60;;
50161;SDS011;36061;48.116;11.612;2023-10-31T14:17:13;1.70;;;0.80;;
50161;SDS011;36061;48.116;11.612;2023-10-31T14:19:42;1.13;;;1.03;;
50161;SDS011;36061;48.116;11.612;2023-10-31T14:22:11;0.80;;;0.80;;
50161;SDS011;36061;48.116;11.612;2023-10-31T14:24:40;2.03;;;0.80;;
50161;SDS011;36061;48.116;11.612;2023-10-31T14:27:08;1.27;;;0.70;;
50161;SDS011;36061;48.116;11.612;2023-10-31T14:29:35;1.67;;;0.80;;
50161;SDS011;36061;48.116;11.612;2023-10-31T14:32:06;1.00;;;0.80;;
50161;SDS011;36061;48.116;11.612;2023-10-31T14:34:36;1.90;;;0.80;;
50161;SDS011;36061;48.116;11.612;2023-10-31T14:37:04;1.07;;;0.60;;
50161;SDS011;36061;48.116;11.612;2023-10-31T14:39:32;4.30;;;0.73;;